sensor_id;sensor_type;location;lat;lon;timestamp;P1;durP1;ratioP1;P2;durP2;ratioP2
16262;SDS011;8239;48.594;8.598;2023-08-01T00:01:33;5.97;;;4.22;;
16262;SDS011;8239;48.594;8.598;2023-08-01T00:04:00;4.93;;;3.60;;
16262;SDS011;8239;48.594;8.598;2023-08-01T00:06:26;7.32;;;4.13;;
16262;SDS011;8239;48.594;8.598;2023-08-01T00:08:55;6.38;;;4.10;;
16262;SDS011;8239;48.594;8.598;2023-08-01T00:11:22;5.10;;;3.90;;
16262;SDS011;8239;48.594;8.598;2023-08-01T00:13:49;5.47;;;3.50;;
16262;SDS011;8239;48.594;8.598;2023-08-01T00:16:16;6.18;;;3.78;;
16262;SDS011;8239;48.594;8.598;2023-08-01T00:18:43;4.60;;;3.70;;
16262;SDS011;8239;48.594;8.598;2023-08-01T00:21:09;5.60;;;3.75;;
16262;SDS011;8239;48.594;8.598;2023-08-01T00:23:36;4.80;;;3.90;;
16262;SDS011;8239;48.594;8.598;2023-08-01T00:26:05;6.03;;;4.00;;
16262;SDS011;8239;48.594;8.598;2023-08-01T00:28:32;5.63;;;3.83;;
16262;SDS011;8239;48.594;8.598;2023-08-01T00:31:02;6.40;;;4.07;;
16262;SDS011;8239;48.594;8.598;2023-08-01T00:33:30;4.72;;;3.38;;
16262;SDS011;8239;48.594;8.598;2023-08-01T00:35:57;5.45;;;3.50;;
16262;SDS011;8239;48.594;8.598;2023-08-01T00:38:24;6.53;;;4.03;;
16262;SDS011;8239;48.594;8.598;2023-08-01T00:40:51;4.30;;;3.78;;
16262;SDS011;8239;48.594;8.598;2023-08-01T00:43:19;4.97;;;3.80;;
16262;SDS011;8239;48.594;8.598;2023-08-01T00:45:46;4.30;;;3.78;;
16262;SDS011;8239;48.594;8.598;2023-08-01T00:48:13;5.10;;;3.80;;
16262;SDS011;8239;48.594;8.598;2023-08-01T00:50:41;5.35;;;3.80;;
16262;SDS011;8239;48.594;8.598;2023-08-01T00:53:08;5.63;;;3.65;;
16262;SDS011;8239;48.594;8.598;2023-08-01T00:55:39;5.60;;;3.92;;
16262;SDS011;8239;48.594;8.598;2023-08-01T00:58:06;6.30;;;3.97;;
16262;SDS011;8239;48.594;8.598;2023-08-01T01:00:34;6.10;;;3.65;;
16262;SDS011;8239;48.594;8.598;2023-08-01T01:03:01;7.65;;;4.22;;
16262;SDS011;8239;48.594;8.598;2023-08-01T01:05:29;7.38;;;4.10;;
16262;SDS011;8239;48.594;8.598;2023-08-01T01:08:01;6.70;;;4.07;;
16262;SDS011;8239;48.594;8.598;2023-08-01T01:10:29;4.43;;;3.60;;
16262;SDS011;8239;48.594;8.598;2023-08-01T01:12:56;6.25;;;3.70;;
16262;SDS011;8239;48.594;8.598;2023-08-01T01:15:23;4.78;;;3.92;;
16262;SDS011;8239;48.594;8.598;2023-08-01T01:17:51;5.22;;;4.20;;
16262;SDS011;8239;48.594;8.598;2023-08-01T01:20:21;6.45;;;3.70;;
16262;SDS011;8239;48.594;8.598;2023-08-01T01:22:50;5.50;;;3.88;;
16262;SDS011;8239;48.594;8.598;2023-08-01T01:25:19;4.78;;;3.78;;
16262;SDS011;8239;48.594;8.598;2023-08-01T01:27:48;5.40;;;4.10;;
16262;SDS011;8239;48.594;8.598;2023-08-01T01:30:18;6.10;;;3.75;;
16262;SDS011;8239;48.594;8.598;2023-08-01T01:32:45;5.07;;;4.03;;
16262;SDS011;8239;48.594;8.598;2023-08-01T01:35:14;6.28;;;4.03;;
16262;SDS011;8239;48.594;8.598;2023-08-01T01:37:41;4.50;;;3.83;;
16262;SDS011;8239;48.594;8.598;2023-08-01T01:40:09;4.70;;;3.70;;
16262;SDS011;8239;48.594;8.598;2023-08-01T01:42:37;7.38;;;4.18;;
16262;SDS011;8239;48.594;8.598;2023-08-01T01:45:05;6.13;;;4.20;;
16262;SDS011;8239;48.594;8.598;2023-08-01T01:47:32;4.38;;;3.67;;
16262;SDS011;8239;48.594;8.598;2023-08-01T01:49:59;5.50;;;4.03;;
16262;SDS011;8239;48.594;8.598;2023-08-01T01:52:26;6.53;;;4.63;;
16262;SDS011;8239;48.594;8.598;2023-08-01T01:54:53;7.20;;;3.88;;
16262;SDS011;8239;48.594;8.598;2023-08-01T01:57:21;4.80;;;3.88;;
16262;SDS011;8239;48.594;8.598;2023-08-01T01:59:48;6.30;;;4.25;;
16262;SDS011;8239;48.594;8.598;2023-08-01T02:02:15;5.78;;;4.05;;
16262;SDS011;8239;48.594;8.598;2023-08-01T02:04:42;5.15;;;4.03;;
16262;SDS011;8239;48.594;8.598;2023-08-01T02:07:10;5.93;;;3.97;;
16262;SDS011;8239;48.594;8.598;2023-08-01T02:09:39;4.78;;;3.60;;
16262;SDS011;8239;48.594;8.598;2023-08-01T02:12:06;6.50;;;4.22;;
16262;SDS011;8239;48.594;8.598;2023-08-01T02:14:36;5.25;;;3.70;;
16262;SDS011;8239;48.594;8.598;2023-08-01T02:17:03;5.32;;;3.95;;
16262;SDS011;8239;48.594;8.598;2023-08-01T02:19:30;6.07;;;4.43;;
16262;SDS011;8239;48.594;8.598;2023-08-01T02:21:57;4.90;;;3.92;;
16262;SDS011;8239;48.594;8.598;2023-08-01T02:24:24;5.65;;;4.00;;
16262;SDS011;8239;48.594;8.598;2023-08-01T02:26:51;4.97;;;3.92;;
16262;SDS011;8239;48.594;8.598;2023-08-01T02:29:18;6.78;;;4.15;;
16262;SDS011;8239;48.594;8.598;2023-08-01T02:31:46;5.68;;;4.05;;
16262;SDS011;8239;48.594;8.598;2023-08-01T02:34:13;8.20;;;4.57;;
16262;SDS011;8239;48.594;8.598;2023-08-01T02:36:40;6.30;;;4.07;;
16262;SDS011;8239;48.594;8.598;2023-08-01T02:39:07;5.47;;;4.13;;
16262;SDS011;8239;48.594;8.598;2023-08-01T02:41:34;4.35;;;3.67;;
16262;SDS011;8239;48.594;8.598;2023-08-01T02:44:01;5.93;;;3.88;;
16262;SDS011;8239;48.594;8.598;2023-08-01T02:46:27;4.90;;;3.78;;
16262;SDS011;8239;48.594;8.598;2023-08-01T02:48:56;5.00;;;3.83;;
16262;SDS011;8239;48.594;8.598;2023-08-01T02:51:23;6.03;;;4.00;;
16262;SDS011;8239;48.594;8.598;2023-08-01T02:53:50;6.15;;;4.07;;
16262;SDS011;8239;48.594;8.598;2023-08-01T02:56:17;6.07;;;4.10;;
16262;SDS011;8239;48.594;8.598;2023-08-01T02:58:44;6.03;;;4.20;;
16262;SDS011;8239;48.594;8.598;2023-08-01T03:01:11;5.18;;;3.70;;
16262;SDS011;8239;48.594;8.598;2023-08-01T03:03:38;4.65;;;3.90;;
16262;SDS011;8239;48.594;8.598;2023-08-01T03:06:08;5.00;;;4.10;;
16262;SDS011;8239;48.594;8.598;2023-08-01T03:08:35;5.43;;;3.28;;
16262;SDS011;8239;48.594;8.598;2023-08-01T03:11:01;4.10;;;2.85;;
16262;SDS011;8239;48.594;8.598;2023-08-01T03:13:28;5.20;;;2.90;;
16262;SDS011;8239;48.594;8.598;2023-08-01T03:15:55;4.63;;;3.13;;
16262;SDS011;8239;48.594;8.598;2023-08-01T03:18:22;6.40;;;3.22;;
16262;SDS011;8239;48.594;8.598;2023-08-01T03:20:49;5.22;;;3.40;;
16262;SDS011;8239;48.594;8.598;2023-08-01T03:23:18;6.38;;;3.58;;
16262;SDS011;8239;48.594;8.598;2023-08-01T03:25:45;5.45;;;3.47;;
16262;SDS011;8239;48.594;8.598;2023-08-01T03:28:12;7.60;;;3.80;;
16262;SDS011;8239;48.594;8.598;2023-08-01T03:30:39;6.05;;;3.28;;
16262;SDS011;8239;48.594;8.598;2023-08-01T03:33:06;4.75;;;3.40;;
16262;SDS011;8239;48.594;8.598;2023-08-01T03:35:33;3.78;;;3.03;;
16262;SDS011;8239;48.594;8.598;2023-08-01T03:37:59;4.15;;;3.30;;
16262;SDS011;8239;48.594;8.598;2023-08-01T03:40:28;6.20;;;4.13;;
16262;SDS011;8239;48.594;8.598;2023-08-01T03:42:55;6.70;;;3.67;;
16262;SDS011;8239;48.594;8.598;2023-08-01T03:45:22;4.72;;;3.60;;
16262;SDS011;8239;48.594;8.598;2023-08-01T03:47:49;3.95;;;3.30;;
16262;SDS011;8239;48.594;8.598;2023-08-01T03:50:16;7.70;;;3.60;;
16262;SDS011;8239;48.594;8.598;2023-08-01T03:52:42;5.50;;;3.90;;
16262;SDS011;8239;48.594;8.598;2023-08-01T03:55:10;5.38;;;3.58;;
16262;SDS011;8239;48.594;8.598;2023-08-01T03:57:38;7.88;;;4.38;;
16262;SDS011;8239;48.594;8.598;2023-08-01T04:00:06;4.72;;;3.25;;
16262;SDS011;8239;48.594;8.598;2023-08-01T04:02:38;5.63;;;3.50;;
16262;SDS011;8239;48.594;8.598;2023-08-01T04:05:06;4.53;;;3.83;;
16262;SDS011;8239;48.594;8.598;2023-08-01T04:07:34;5.13;;;3.40;;
16262;SDS011;8239;48.594;8.598;2023-08-01T04:10:01;5.53;;;3.78;;
16262;SDS011;8239;48.594;8.598;2023-08-01T04:12:28;5.90;;;3.90;;
16262;SDS011;8239;48.594;8.598;2023-08-01T04:14:57;6.88;;;4.07;;
16262;SDS011;8239;48.594;8.598;2023-08-01T04:17:24;4.45;;;3.70;;
16262;SDS011;8239;48.594;8.598;2023-08-01T04:19:51;6.32;;;3.78;;
16262;SDS011;8239;48.594;8.598;2023-08-01T04:22:18;6.47;;;3.67;;
16262;SDS011;8239;48.594;8.598;2023-08-01T04:24:45;5.40;;;3.58;;
16262;SDS011;8239;48.594;8.598;2023-08-01T04:27:12;5.95;;;4.00;;
16262;SDS011;8239;48.594;8.598;2023-08-01T04:29:39;7.03;;;3.95;;
16262;SDS011;8239;48.594;8.598;2023-08-01T04:32:07;5.95;;;4.22;;
16262;SDS011;8239;48.594;8.598;2023-08-01T04:34:37;8.18;;;4.30;;
16262;SDS011;8239;48.594;8.598;2023-08-01T04:37:04;4.35;;;3.78;;
16262;SDS011;8239;48.594;8.598;2023-08-01T04:39:31;6.13;;;3.83;;
16262;SDS011;8239;48.594;8.598;2023-08-01T04:41:58;6.30;;;4.10;;
16262;SDS011;8239;48.594;8.598;2023-08-01T04:44:25;9.15;;;4.10;;
16262;SDS011;8239;48.594;8.598;2023-08-01T04:46:52;6.18;;;4.20;;
16262;SDS011;8239;48.594;8.598;2023-08-01T04:49:21;7.07;;;4.13;;
16262;SDS011;8239;48.594;8.598;2023-08-01T04:51:49;6.78;;;4.10;;
16262;SDS011;8239;48.594;8.598;2023-08-01T04:54:17;5.97;;;3.97;;
16262;SDS011;8239;48.594;8.598;2023-08-01T04:56:44;7.38;;;4.43;;
16262;SDS011;8239;48.594;8.598;2023-08-01T04:59:10;8.07;;;4.13;;
16262;SDS011;8239;48.594;8.598;2023-08-01T05:01:37;7.03;;;3.97;;
16262;SDS011;8239;48.594;8.598;2023-08-01T05:04:04;5.95;;;3.67;;
16262;SDS011;8239;48.594;8.598;2023-08-01T05:06:33;6.47;;;4.10;;
16262;SDS011;8239;48.594;8.598;2023-08-01T05:09:00;5.38;;;4.05;;
16262;SDS011;8239;48.594;8.598;2023-08-01T05:11:27;8.00;;;4.18;;
16262;SDS011;8239;48.594;8.598;2023-08-01T05:13:54;5.22;;;3.78;;
16262;SDS011;8239;48.594;8.598;2023-08-01T05:16:21;7.80;;;3.92;;
16262;SDS011;8239;48.594;8.598;2023-08-01T05:18:47;6.18;;;3.60;;
16262;SDS011;8239;48.594;8.598;2023-08-01T05:21:14;5.15;;;3.92;;
16262;SDS011;8239;48.594;8.598;2023-08-01T05:23:43;4.78;;;3.67;;
16262;SDS011;8239;48.594;8.598;2023-08-01T05:26:10;5.65;;;3.97;;
16262;SDS011;8239;48.594;8.598;2023-08-01T05:28:36;5.35;;;3.88;;
16262;SDS011;8239;48.594;8.598;2023-08-01T05:31:03;4.63;;;3.85;;
16262;SDS011;8239;48.594;8.598;2023-08-01T05:33:30;3.67;;;3.25;;
16262;SDS011;8239;48.594;8.598;2023-08-01T05:35:57;4.53;;;2.65;;
16262;SDS011;8239;48.594;8.598;2023-08-01T05:38:24;4.47;;;3.15;;
16262;SDS011;8239;48.594;8.598;2023-08-01T05:40:53;4.13;;;3.20;;
16262;SDS011;8239;48.594;8.598;2023-08-01T05:43:19;4.18;;;3.30;;
16262;SDS011;8239;48.594;8.598;2023-08-01T05:45:46;3.72;;;2.83;;
16262;SDS011;8239;48.594;8.598;2023-08-01T05:48:13;4.35;;;2.30;;
16262;SDS011;8239;48.594;8.598;2023-08-01T05:50:40;4.93;;;3.60;;
16262;SDS011;8239;48.594;8.598;2023-08-01T05:53:07;4.60;;;3.35;;
16262;SDS011;8239;48.594;8.598;2023-08-01T05:55:34;3.58;;;3.20;;
16262;SDS011;8239;48.594;8.598;2023-08-01T05:58:02;4.78;;;3.58;;
16262;SDS011;8239;48.594;8.598;2023-08-01T06:00:29;5.00;;;3.53;;
16262;SDS011;8239;48.594;8.598;2023-08-01T06:02:56;7.18;;;4.30;;
16262;SDS011;8239;48.594;8.598;2023-08-01T06:05:23;4.78;;;3.95;;
16262;SDS011;8239;48.594;8.598;2023-08-01T06:07:50;5.28;;;4.30;;
16262;SDS011;8239;48.594;8.598;2023-08-01T06:10:17;6.03;;;4.18;;
16262;SDS011;8239;48.594;8.598;2023-08-01T06:12:44;4.78;;;4.18;;
16262;SDS011;8239;48.594;8.598;2023-08-01T06:15:13;6.40;;;4.43;;
16262;SDS011;8239;48.594;8.598;2023-08-01T06:17:40;5.55;;;4.78;;
16262;SDS011;8239;48.594;8.598;2023-08-01T06:20:07;6.72;;;4.32;;
16262;SDS011;8239;48.594;8.598;2023-08-01T06:22:35;7.20;;;5.15;;
16262;SDS011;8239;48.594;8.598;2023-08-01T06:25:02;6.13;;;4.70;;
16262;SDS011;8239;48.594;8.598;2023-08-01T06:27:29;8.25;;;4.78;;
16262;SDS011;8239;48.594;8.598;2023-08-01T06:29:56;7.20;;;4.68;;
16262;SDS011;8239;48.594;8.598;2023-08-01T06:32:24;6.28;;;5.22;;
16262;SDS011;8239;48.594;8.598;2023-08-01T06:34:51;7.25;;;4.97;;
16262;SDS011;8239;48.594;8.598;2023-08-01T06:37:18;7.75;;;5.40;;
16262;SDS011;8239;48.594;8.598;2023-08-01T06:39:45;7.72;;;5.25;;
16262;SDS011;8239;48.594;8.598;2023-08-01T06:42:14;4.85;;;3.88;;
16262;SDS011;8239;48.594;8.598;2023-08-01T06:44:42;6.95;;;4.93;;
16262;SDS011;8239;48.594;8.598;2023-08-01T06:47:09;6.00;;;4.68;;
16262;SDS011;8239;48.594;8.598;2023-08-01T06:49:37;6.10;;;4.55;;
16262;SDS011;8239;48.594;8.598;2023-08-01T06:52:04;5.78;;;4.43;;
16262;SDS011;8239;48.594;8.598;2023-08-01T06:54:31;5.50;;;4.00;;
16262;SDS011;8239;48.594;8.598;2023-08-01T06:56:59;6.68;;;4.85;;
16262;SDS011;8239;48.594;8.598;2023-08-01T06:59:26;6.68;;;4.45;;
16262;SDS011;8239;48.594;8.598;2023-08-01T07:01:53;5.07;;;3.85;;
16262;SDS011;8239;48.594;8.598;2023-08-01T07:04:20;7.30;;;4.53;;
16262;SDS011;8239;48.594;8.598;2023-08-01T07:06:48;7.75;;;4.80;;
16262;SDS011;8239;48.594;8.598;2023-08-01T07:09:15;6.50;;;4.53;;
16262;SDS011;8239;48.594;8.598;2023-08-01T07:11:42;4.32;;;3.38;;
16262;SDS011;8239;48.594;8.598;2023-08-01T07:14:09;5.15;;;3.88;;
16262;SDS011;8239;48.594;8.598;2023-08-01T07:16:36;6.50;;;4.35;;
16262;SDS011;8239;48.594;8.598;2023-08-01T07:19:04;5.00;;;3.85;;
16262;SDS011;8239;48.594;8.598;2023-08-01T07:21:31;4.35;;;3.40;;
16262;SDS011;8239;48.594;8.598;2023-08-01T07:23:59;5.35;;;3.85;;
16262;SDS011;8239;48.594;8.598;2023-08-01T07:26:26;4.63;;;3.33;;
16262;SDS011;8239;48.594;8.598;2023-08-01T07:28:53;4.38;;;3.10;;
16262;SDS011;8239;48.594;8.598;2023-08-01T07:31:20;4.60;;;3.17;;
16262;SDS011;8239;48.594;8.598;2023-08-01T07:33:48;3.88;;;3.10;;
16262;SDS011;8239;48.594;8.598;2023-08-01T07:36:14;3.72;;;3.20;;
16262;SDS011;8239;48.594;8.598;2023-08-01T07:38:41;3.17;;;2.78;;
16262;SDS011;8239;48.594;8.598;2023-08-01T07:41:10;3.42;;;3.00;;
16262;SDS011;8239;48.594;8.598;2023-08-01T07:43:37;4.05;;;2.92;;
16262;SDS011;8239;48.594;8.598;2023-08-01T07:46:03;3.78;;;2.70;;
16262;SDS011;8239;48.594;8.598;2023-08-01T07:48:30;4.88;;;2.95;;
16262;SDS011;8239;48.594;8.598;2023-08-01T07:50:57;4.22;;;2.58;;
16262;SDS011;8239;48.594;8.598;2023-08-01T07:53:24;2.25;;;2.05;;
16262;SDS011;8239;48.594;8.598;2023-08-01T07:55:51;2.67;;;2.20;;
16262;SDS011;8239;48.594;8.598;2023-08-01T07:58:20;5.68;;;2.95;;
16262;SDS011;8239;48.594;8.598;2023-08-01T08:00:47;4.30;;;2.00;;
16262;SDS011;8239;48.594;8.598;2023-08-01T08:03:14;2.17;;;1.98;;
16262;SDS011;8239;48.594;8.598;2023-08-01T08:05:41;2.47;;;2.03;;
16262;SDS011;8239;48.594;8.598;2023-08-01T08:08:08;3.40;;;2.10;;
16262;SDS011;8239;48.594;8.598;2023-08-01T08:10:35;2.40;;;1.60;;
16262;SDS011;8239;48.594;8.598;2023-08-01T08:13:02;1.63;;;1.50;;
16262;SDS011;8239;48.594;8.598;2023-08-01T08:15:30;1.88;;;1.40;;
16262;SDS011;8239;48.594;8.598;2023-08-01T08:17:59;1.60;;;1.50;;
16262;SDS011;8239;48.594;8.598;2023-08-01T08:20:29;1.27;;;1.10;;
16262;SDS011;8239;48.594;8.598;2023-08-01T08:22:56;2.40;;;1.00;;
16262;SDS011;8239;48.594;8.598;2023-08-01T08:25:23;1.10;;;0.98;;
16262;SDS011;8239;48.594;8.598;2023-08-01T08:27:50;1.90;;;1.27;;
16262;SDS011;8239;48.594;8.598;2023-08-01T08:30:17;1.65;;;0.90;;
16262;SDS011;8239;48.594;8.598;2023-08-01T08:32:45;1.23;;;0.90;;
16262;SDS011;8239;48.594;8.598;2023-08-01T08:35:12;0.88;;;0.70;;
16262;SDS011;8239;48.594;8.598;2023-08-01T08:37:39;0.70;;;0.70;;
16262;SDS011;8239;48.594;8.598;2023-08-01T08:40:06;0.63;;;0.63;;
16262;SDS011;8239;48.594;8.598;2023-08-01T08:42:34;1.40;;;0.60;;
16262;SDS011;8239;48.594;8.598;2023-08-01T08:45:01;0.65;;;0.65;;
16262;SDS011;8239;48.594;8.598;2023-08-01T08:47:30;0.50;;;0.50;;
16262;SDS011;8239;48.594;8.598;2023-08-01T08:50:02;0.63;;;0.60;;
16262;SDS011;8239;48.594;8.598;2023-08-01T08:52:31;1.13;;;0.43;;
16262;SDS011;8239;48.594;8.598;2023-08-01T08:54:58;0.77;;;0.60;;
16262;SDS011;8239;48.594;8.598;2023-08-01T08:57:25;0.50;;;0.50;;
16262;SDS011;8239;48.594;8.598;2023-08-01T08:59:53;0.65;;;0.60;;
16262;SDS011;8239;48.594;8.598;2023-08-01T09:02:22;1.25;;;0.60;;
16262;SDS011;8239;48.594;8.598;2023-08-01T09:04:49;3.45;;;0.40;;
16262;SDS011;8239;48.594;8.598;2023-08-01T09:07:18;0.30;;;0.30;;
16262;SDS011;8239;48.594;8.598;2023-08-01T09:09:49;0.40;;;0.40;;
16262;SDS011;8239;48.594;8.598;2023-08-01T09:12:16;0.57;;;0.40;;
16262;SDS011;8239;48.594;8.598;2023-08-01T09:14:43;2.28;;;0.40;;
16262;SDS011;8239;48.594;8.598;2023-08-01T09:17:11;0.35;;;0.35;;
16262;SDS011;8239;48.594;8.598;2023-08-01T09:19:41;0.50;;;0.40;;
16262;SDS011;8239;48.594;8.598;2023-08-01T09:22:11;1.65;;;0.50;;
16262;SDS011;8239;48.594;8.598;2023-08-01T09:24:49;0.32;;;0.32;;
16262;SDS011;8239;48.594;8.598;2023-08-01T09:27:17;1.65;;;0.38;;
16262;SDS011;8239;48.594;8.598;2023-08-01T09:29:44;1.58;;;0.40;;
16262;SDS011;8239;48.594;8.598;2023-08-01T09:32:11;0.50;;;0.50;;
16262;SDS011;8239;48.594;8.598;2023-08-01T09:34:40;0.32;;;0.30;;
16262;SDS011;8239;48.594;8.598;2023-08-01T09:37:07;0.22;;;0.22;;
16262;SDS011;8239;48.594;8.598;2023-08-01T09:39:34;0.65;;;0.40;;
16262;SDS011;8239;48.594;8.598;2023-08-01T09:42:03;1.27;;;0.50;;
16262;SDS011;8239;48.594;8.598;2023-08-01T09:44:30;0.38;;;0.30;;
16262;SDS011;8239;48.594;8.598;2023-08-01T09:46:58;0.57;;;0.43;;
16262;SDS011;8239;48.594;8.598;2023-08-01T09:49:26;0.57;;;0.57;;
16262;SDS011;8239;48.594;8.598;2023-08-01T09:51:53;0.50;;;0.40;;
16262;SDS011;8239;48.594;8.598;2023-08-01T09:54:20;0.50;;;0.50;;
16262;SDS011;8239;48.594;8.598;2023-08-01T09:56:48;0.73;;;0.50;;
16262;SDS011;8239;48.594;8.598;2023-08-01T09:59:19;0.50;;;0.50;;
16262;SDS011;8239;48.594;8.598;2023-08-01T10:01:47;0.60;;;0.60;;
16262;SDS011;8239;48.594;8.598;2023-08-01T10:04:17;0.30;;;0.30;;
16262;SDS011;8239;48.594;8.598;2023-08-01T10:06:46;0.60;;;0.60;;
16262;SDS011;8239;48.594;8.598;2023-08-01T10:09:20;0.70;;;0.70;;
16262;SDS011;8239;48.594;8.598;2023-08-01T10:11:48;0.52;;;0.52;;
16262;SDS011;8239;48.594;8.598;2023-08-01T10:14:19;0.70;;;0.70;;
16262;SDS011;8239;48.594;8.598;2023-08-01T10:16:46;0.60;;;0.60;;
16262;SDS011;8239;48.594;8.598;2023-08-01T10:19:14;0.65;;;0.65;;
16262;SDS011;8239;48.594;8.598;2023-08-01T10:21:41;0.50;;;0.50;;
16262;SDS011;8239;48.594;8.598;2023-08-01T10:24:09;1.75;;;0.70;;
16262;SDS011;8239;48.594;8.598;2023-08-01T10:26:37;1.25;;;0.80;;
16262;SDS011;8239;48.594;8.598;2023-08-01T10:29:04;0.70;;;0.70;;
16262;SDS011;8239;48.594;8.598;2023-08-01T10:31:33;0.80;;;0.80;;
16262;SDS011;8239;48.594;8.598;2023-08-01T10:34:03;1.50;;;0.80;;
16262;SDS011;8239;48.594;8.598;2023-08-01T10:36:32;2.05;;;1.00;;
16262;SDS011;8239;48.594;8.598;2023-08-01T10:39:00;1.20;;;1.10;;
16262;SDS011;8239;48.594;8.598;2023-08-01T10:41:28;1.33;;;1.10;;
16262;SDS011;8239;48.594;8.598;2023-08-01T10:44:05;1.00;;;1.00;;
16262;SDS011;8239;48.594;8.598;2023-08-01T10:46:51;0.88;;;0.88;;
16262;SDS011;8239;48.594;8.598;2023-08-01T10:49:20;1.10;;;1.10;;
16262;SDS011;8239;48.594;8.598;2023-08-01T10:51:59;1.30;;;1.20;;
16262;SDS011;8239;48.594;8.598;2023-08-01T10:54:26;1.33;;;1.20;;
16262;SDS011;8239;48.594;8.598;2023-08-01T10:56:53;0.77;;;0.77;;
16262;SDS011;8239;48.594;8.598;2023-08-01T10:59:23;1.15;;;0.90;;
16262;SDS011;8239;48.594;8.598;2023-08-01T11:01:52;0.80;;;0.80;;
16262;SDS011;8239;48.594;8.598;2023-08-01T11:04:20;1.02;;;1.00;;
16262;SDS011;8239;48.594;8.598;2023-08-01T11:06:49;0.95;;;0.95;;
16262;SDS011;8239;48.594;8.598;2023-08-01T11:09:18;1.30;;;1.20;;
16262;SDS011;8239;48.594;8.598;2023-08-01T11:11:47;1.25;;;1.15;;
16262;SDS011;8239;48.594;8.598;2023-08-01T11:14:16;1.35;;;1.08;;
16262;SDS011;8239;48.594;8.598;2023-08-01T11:16:45;0.90;;;0.90;;
16262;SDS011;8239;48.594;8.598;2023-08-01T11:19:21;1.13;;;1.10;;
16262;SDS011;8239;48.594;8.598;2023-08-01T11:21:49;1.48;;;1.02;;
16262;SDS011;8239;48.594;8.598;2023-08-01T11:24:17;1.25;;;1.15;;
16262;SDS011;8239;48.594;8.598;2023-08-01T11:26:46;1.20;;;1.10;;
16262;SDS011;8239;48.594;8.598;2023-08-01T11:29:14;1.27;;;1.17;;
16262;SDS011;8239;48.594;8.598;2023-08-01T11:31:52;1.83;;;1.17;;
16262;SDS011;8239;48.594;8.598;2023-08-01T11:34:22;1.58;;;1.00;;
16262;SDS011;8239;48.594;8.598;2023-08-01T11:36:49;1.10;;;1.00;;
16262;SDS011;8239;48.594;8.598;2023-08-01T11:39:17;1.20;;;1.20;;
16262;SDS011;8239;48.594;8.598;2023-08-01T11:41:44;1.50;;;1.10;;
16262;SDS011;8239;48.594;8.598;2023-08-01T11:44:12;1.45;;;1.02;;
16262;SDS011;8239;48.594;8.598;2023-08-01T11:46:39;2.97;;;1.23;;
16262;SDS011;8239;48.594;8.598;2023-08-01T11:49:06;2.13;;;1.20;;
16262;SDS011;8239;48.594;8.598;2023-08-01T11:51:40;1.80;;;1.30;;
16262;SDS011;8239;48.594;8.598;2023-08-01T11:54:07;1.15;;;1.13;;
16262;SDS011;8239;48.594;8.598;2023-08-01T11:56:36;1.58;;;1.30;;
16262;SDS011;8239;48.594;8.598;2023-08-01T11:59:10;1.23;;;1.10;;
16262;SDS011;8239;48.594;8.598;2023-08-01T12:01:38;1.50;;;1.40;;
16262;SDS011;8239;48.594;8.598;2023-08-01T12:04:05;1.77;;;1.10;;
16262;SDS011;8239;48.594;8.598;2023-08-01T12:06:33;1.48;;;1.38;;
16262;SDS011;8239;48.594;8.598;2023-08-01T12:09:08;2.05;;;1.50;;
16262;SDS011;8239;48.594;8.598;2023-08-01T12:11:37;1.25;;;1.15;;
16262;SDS011;8239;48.594;8.598;2023-08-01T12:14:05;2.70;;;1.20;;
16262;SDS011;8239;48.594;8.598;2023-08-01T12:16:34;1.60;;;1.50;;
16262;SDS011;8239;48.594;8.598;2023-08-01T12:19:02;1.40;;;1.30;;
16262;SDS011;8239;48.594;8.598;2023-08-01T12:21:31;1.30;;;1.20;;
16262;SDS011;8239;48.594;8.598;2023-08-01T12:23:59;1.48;;;1.38;;
16262;SDS011;8239;48.594;8.598;2023-08-01T12:26:28;1.52;;;1.20;;
16262;SDS011;8239;48.594;8.598;2023-08-01T12:28:55;2.50;;;1.40;;
16262;SDS011;8239;48.594;8.598;2023-08-01T12:31:22;1.90;;;1.25;;
16262;SDS011;8239;48.594;8.598;2023-08-01T12:33:49;1.65;;;1.30;;
16262;SDS011;8239;48.594;8.598;2023-08-01T12:36:18;1.50;;;1.35;;
16262;SDS011;8239;48.594;8.598;2023-08-01T12:38:45;1.65;;;1.48;;
16262;SDS011;8239;48.594;8.598;2023-08-01T12:41:12;1.50;;;1.40;;
16262;SDS011;8239;48.594;8.598;2023-08-01T12:43:41;1.80;;;1.20;;
16262;SDS011;8239;48.594;8.598;2023-08-01T12:46:08;2.15;;;1.25;;
16262;SDS011;8239;48.594;8.598;2023-08-01T12:48:34;1.60;;;1.40;;
16262;SDS011;8239;48.594;8.598;2023-08-01T12:51:02;1.38;;;1.27;;
16262;SDS011;8239;48.594;8.598;2023-08-01T12:53:29;1.50;;;1.40;;
16262;SDS011;8239;48.594;8.598;2023-08-01T12:55:56;1.55;;;1.45;;
16262;SDS011;8239;48.594;8.598;2023-08-01T12:58:23;1.20;;;1.10;;
16262;SDS011;8239;48.594;8.598;2023-08-01T13:00:51;1.40;;;1.30;;
16262;SDS011;8239;48.594;8.598;2023-08-01T13:03:20;1.33;;;1.23;;
16262;SDS011;8239;48.594;8.598;2023-08-01T13:05:47;1.40;;;1.30;;
16262;SDS011;8239;48.594;8.598;2023-08-01T13:08:14;1.63;;;1.30;;
16262;SDS011;8239;48.594;8.598;2023-08-01T13:10:41;1.35;;;1.25;;
16262;SDS011;8239;48.594;8.598;2023-08-01T13:13:10;1.10;;;1.10;;
16262;SDS011;8239;48.594;8.598;2023-08-01T13:15:37;1.33;;;1.20;;
16262;SDS011;8239;48.594;8.598;2023-08-01T13:18:05;1.27;;;1.20;;
16262;SDS011;8239;48.594;8.598;2023-08-01T13:20:32;1.20;;;1.10;;
16262;SDS011;8239;48.594;8.598;2023-08-01T13:22:59;1.10;;;1.10;;
16262;SDS011;8239;48.594;8.598;2023-08-01T13:25:26;1.17;;;1.10;;
16262;SDS011;8239;48.594;8.598;2023-08-01T13:27:53;1.25;;;1.20;;
16262;SDS011;8239;48.594;8.598;2023-08-01T13:30:20;1.65;;;1.48;;
16262;SDS011;8239;48.594;8.598;2023-08-01T13:32:47;1.50;;;1.40;;
16262;SDS011;8239;48.594;8.598;2023-08-01T13:35:15;1.40;;;1.30;;
16262;SDS011;8239;48.594;8.598;2023-08-01T13:37:43;1.60;;;1.50;;
16262;SDS011;8239;48.594;8.598;2023-08-01T13:40:10;1.17;;;1.17;;
16262;SDS011;8239;48.594;8.598;2023-08-01T13:42:39;1.33;;;1.30;;
16262;SDS011;8239;48.594;8.598;2023-08-01T13:45:07;2.00;;;1.30;;
16262;SDS011;8239;48.594;8.598;2023-08-01T13:47:34;1.48;;;1.38;;
16262;SDS011;8239;48.594;8.598;2023-08-01T13:50:01;1.15;;;1.15;;
16262;SDS011;8239;48.594;8.598;2023-08-01T13:52:30;1.60;;;1.50;;
16262;SDS011;8239;48.594;8.598;2023-08-01T13:54:56;1.30;;;1.20;;
16262;SDS011;8239;48.594;8.598;2023-08-01T13:57:25;1.73;;;1.27;;
16262;SDS011;8239;48.594;8.598;2023-08-01T13:59:52;1.38;;;1.27;;
16262;SDS011;8239;48.594;8.598;2023-08-01T14:02:19;2.05;;;1.30;;
16262;SDS011;8239;48.594;8.598;2023-08-01T14:04:46;2.45;;;1.42;;
16262;SDS011;8239;48.594;8.598;2023-08-01T14:07:16;1.40;;;1.30;;
16262;SDS011;8239;48.594;8.598;2023-08-01T14:09:45;1.60;;;1.33;;
16262;SDS011;8239;48.594;8.598;2023-08-01T14:12:12;1.95;;;1.38;;
16262;SDS011;8239;48.594;8.598;2023-08-01T14:14:41;1.25;;;1.15;;
16262;SDS011;8239;48.594;8.598;2023-08-01T14:17:08;1.90;;;1.20;;
16262;SDS011;8239;48.594;8.598;2023-08-01T14:19:35;1.33;;;1.23;;
16262;SDS011;8239;48.594;8.598;2023-08-01T14:22:02;2.03;;;1.20;;
16262;SDS011;8239;48.594;8.598;2023-08-01T14:24:30;1.40;;;1.30;;
16262;SDS011;8239;48.594;8.598;2023-08-01T14:26:58;1.77;;;1.20;;
16262;SDS011;8239;48.594;8.598;2023-08-01T14:29:25;1.30;;;1.10;;
16262;SDS011;8239;48.594;8.598;2023-08-01T14:31:52;1.58;;;1.33;;
16262;SDS011;8239;48.594;8.598;2023-08-01T14:34:19;1.73;;;1.17;;
16262;SDS011;8239;48.594;8.598;2023-08-01T14:36:46;1.85;;;1.20;;
16262;SDS011;8239;48.594;8.598;2023-08-01T14:39:13;1.23;;;1.20;;
16262;SDS011;8239;48.594;8.598;2023-08-01T14:41:40;0.93;;;0.93;;
16262;SDS011;8239;48.594;8.598;2023-08-01T14:44:09;0.93;;;0.88;;
16262;SDS011;8239;48.594;8.598;2023-08-01T14:46:36;1.63;;;1.20;;
16262;SDS011;8239;48.594;8.598;2023-08-01T14:49:03;1.55;;;1.10;;
16262;SDS011;8239;48.594;8.598;2023-08-01T14:51:30;3.33;;;1.50;;
16262;SDS011;8239;48.594;8.598;2023-08-01T14:53:57;1.92;;;1.60;;
16262;SDS011;8239;48.594;8.598;2023-08-01T14:56:25;1.48;;;1.38;;
16262;SDS011;8239;48.594;8.598;2023-08-01T14:58:52;2.00;;;1.30;;
16262;SDS011;8239;48.594;8.598;2023-08-01T15:01:20;1.50;;;1.35;;
16262;SDS011;8239;48.594;8.598;2023-08-01T15:03:47;1.65;;;1.10;;